Time;durP1;ratioP1;P1;durP2;ratioP2;P2;SDS_P1;SDS_P2;PMS_P1;PMS_P2;Temp;Humidity;BMP_temperature;BMP_pressure;BME280_temperature;BME280_humidity;BME280_pressure;Samples;Min_cycle;Max_cycle;Signal;HPM_P1;HPM_P2
2023/07/13 00:00:40;;;;;;;9.75;4.07;;;;;;;29.18;46.06;98575.72;2065818;28;20049;-55
2023/07/13 00:01:42;;;;;;;8.20;3.83;;;;;;;29.16;46.05;98577.91;2065032;28;20125;-55
2023/07/13 00:02:43;;;;;;;8.18;3.08;;;;;;;29.22;46.02;98577.91;2064572;28;20558;-51
2023/07/13 00:03:45;;;;;;;7.25;3.05;;;;;;;29.22;46.04;98569.72;2065879;28;20053;-54
2023/07/13 00:04:46;;;;;;;4.75;2.78;;;;;;;29.22;45.86;98573.25;2061939;28;20057;-53
2023/07/13 00:05:48;;;;;;;6.32;3.63;;;;;;;29.31;45.92;98571.63;2063982;28;20503;-53
2023/07/13 00:06:51;;;;;;;5.95;3.13;;;;;;;29.34;45.86;98570.25;2065220;28;20059;-54
2023/07/13 00:07:54;;;;;;;7.60;2.97;;;;;;;29.27;45.91;98570.53;2062701;28;20415;-58
2023/07/13 00:08:55;;;;;;;7.20;2.47;;;;;;;29.21;46.05;98576.28;2064341;28;20082;-53
2023/07/13 00:09:57;;;;;;;9.45;4.35;;;;;;;29.20;45.95;98570.00;2064594;28;20054;-52
2023/07/13 00:10:58;;;;;;;8.15;3.33;;;;;;;29.23;46.00;98568.63;2065654;28;20388;-60
2023/07/13 00:12:00;;;;;;;4.88;2.85;;;;;;;29.24;45.75;98564.81;2064944;28;20061;-55
2023/07/13 00:13:00;;;;;;;8.48;3.67;;;;;;;29.29;45.93;98556.59;2056094;28;20444;-57
2023/07/13 00:14:02;;;;;;;6.75;2.45;;;;;;;29.24;46.11;98559.34;2062907;28;20144;-49
2023/07/13 00:15:06;;;;;;;6.80;3.30;;;;;;;29.30;45.74;98560.97;2062679;28;20160;-55
2023/07/13 00:16:09;;;;;;;8.18;2.60;;;;;;;29.32;45.96;98561.50;2065835;28;20637;-53
2023/07/13 00:17:09;;;;;;;5.05;2.72;;;;;;;29.27;46.13;98564.25;2064999;28;20182;-52
2023/07/13 00:18:11;;;;;;;5.57;3.13;;;;;;;29.25;46.00;98560.97;2066063;28;20828;-48
2023/07/13 00:19:13;;;;;;;6.65;3.95;;;;;;;29.31;46.03;98563.44;2060959;28;20077;-62
2023/07/13 00:20:15;;;;;;;8.80;3.50;;;;;;;29.34;46.05;98564.78;2063915;28;20058;-55
2023/07/13 00:21:16;;;;;;;10.68;3.75;;;;;;;29.28;46.03;98565.88;2063547;28;20444;-56
2023/07/13 00:22:19;;;;;;;6.70;3.63;;;;;;;29.34;45.75;98554.69;2061977;28;20089;-53
2023/07/13 00:23:20;;;;;;;7.22;3.30;;;;;;;29.26;46.27;98557.16;2065922;28;20412;-54
2023/07/13 00:24:23;;;;;;;11.00;3.47;;;;;;;29.33;46.11;98560.41;2063992;28;20153;-58
2023/07/13 00:25:27;;;;;;;8.32;3.05;;;;;;;29.25;46.36;98567.25;2062730;28;20508;-50
2023/07/13 00:26:29;;;;;;;10.57;3.60;;;;;;;29.33;46.17;98571.34;2063954;28;20058;-50
2023/07/13 00:27:31;;;;;;;9.80;3.60;;;;;;;29.17;46.01;98565.91;2063012;28;20054;-49
2023/07/13 00:28:34;;;;;;;11.73;3.58;;;;;;;29.16;46.53;98572.44;2062685;28;20042;-49
2023/07/13 00:29:35;;;;;;;7.55;3.22;;;;;;;29.17;46.21;98565.91;2064919;28;20431;-47
2023/07/13 00:30:37;;;;;;;5.85;2.92;;;;;;;29.25;46.41;98555.50;2061386;28;20047;-53
2023/07/13 00:31:38;;;;;;;8.25;2.97;;;;;;;29.22;46.38;98559.59;2061528;28;20050;-53
2023/07/13 00:32:40;;;;;;;7.70;2.90;;;;;;;29.18;46.35;98551.16;2054743;28;20544;-60
2023/07/13 00:33:41;;;;;;;5.70;3.17;;;;;;;29.13;46.17;98553.06;2062790;28;20046;-47
2023/07/13 00:34:43;;;;;;;12.15;4.18;;;;;;;29.17;46.19;98554.16;2062401;28;20045;-52
2023/07/13 00:35:44;;;;;;;7.68;3.30;;;;;;;29.13;46.21;98553.06;2063554;28;20115;-50
2023/07/13 00:36:46;;;;;;;7.10;3.25;;;;;;;29.15;45.88;98557.16;2063635;28;20511;-47
2023/07/13 00:37:49;;;;;;;5.75;2.58;;;;;;;29.22;46.40;98564.25;2061871;28;20140;-55
2023/07/13 00:38:51;;;;;;;6.55;2.67;;;;;;;29.18;46.35;98556.59;2062160;28;20140;-53
2023/07/13 00:39:52;;;;;;;11.32;3.40;;;;;;;29.32;45.98;98556.03;2062575;28;20160;-50
2023/07/13 00:40:54;;;;;;;7.25;3.83;;;;;;;29.28;45.89;98550.31;2064099;28;20058;-54
2023/07/13 00:41:55;;;;;;;8.98;2.83;;;;;;;29.22;45.94;98556.88;2066795;28;20139;-57
2023/07/13 00:42:59;;;;;;;6.10;2.70;;;;;;;29.16;46.11;98553.31;2061742;28;20051;-55
2023/07/13 00:44:00;;;;;;;9.00;2.85;;;;;;;29.20;45.95;98567.28;2062591;28;20057;-60
2023/07/13 00:45:04;;;;;;;7.90;3.45;;;;;;;29.25;45.91;98559.03;2065235;28;20054;-51
2023/07/13 00:46:22;;;;;;;5.28;3.20;;;;;;;29.24;45.91;98571.06;2064882;28;20057;-49
2023/07/13 00:47:23;;;;;;;4.78;2.67;;;;;;;29.17;45.88;98563.19;2061483;28;20042;-50
2023/07/13 00:48:37;;;;;;;5.93;3.05;;;;;;;29.10;45.86;98567.28;2062048;28;20051;-56
2023/07/13 00:49:39;;;;;;;13.15;3.25;;;;;;;29.02;45.77;98568.59;2051044;28;20053;-52
2023/07/13 00:50:41;;;;;;;16.67;3.38;;;;;;;29.02;45.41;98574.06;2061127;28;20050;-51
2023/07/13 00:51:48;;;;;;;7.32;3.40;;;;;;;29.05;45.50;98573.53;2064511;28;20074;-52
2023/07/13 00:52:53;;;;;;;8.10;3.63;;;;;;;29.07;45.97;98571.38;2062088;28;20046;-52
2023/07/13 00:54:00;;;;;;;6.05;3.42;;;;;;;29.14;46.20;98571.06;2063887;28;20088;-54
2023/07/13 00:55:01;;;;;;;7.45;3.35;;;;;;;29.23;45.75;98574.09;2060486;28;20100;-58
2023/07/13 00:56:04;;;;;;;9.25;3.53;;;;;;;29.25;45.80;98578.16;2063279;28;20099;-49
2023/07/13 00:57:09;;;;;;;6.22;3.28;;;;;;;29.28;45.76;98574.91;2059945;28;20060;-53
2023/07/13 00:58:11;;;;;;;10.30;2.85;;;;;;;29.29;45.42;98578.47;2063414;28;20058;-51
2023/07/13 00:59:14;;;;;;;3.78;2.85;;;;;;;29.24;45.85;98573.00;2062552;28;20157;-54
2023/07/13 01:00:17;;;;;;;6.88;3.33;;;;;;;29.21;45.76;98568.09;2065500;28;20780;-51
2023/07/13 01:01:18;;;;;;;15.05;3.58;;;;;;;29.18;45.97;98562.06;2061335;28;20058;-47
2023/07/13 01:02:21;;;;;;;12.40;3.42;;;;;;;29.21;45.59;98557.97;2061967;28;20150;-54
2023/07/13 01:03:22;;;;;;;6.25;3.10;;;;;;;29.20;45.96;98560.97;2063739;28;20061;-51
2023/07/13 01:04:25;;;;;;;4.13;2.85;;;;;;;29.22;45.72;98567.78;2062899;28;20052;-57
2023/07/13 01:05:26;;;;;;;7.05;3.20;;;;;;;29.30;45.56;98567.25;2062108;28;20513;-47
2023/07/13 01:06:29;;;;;;;4.22;2.55;;;;;;;29.32;45.53;98567.78;2053540;28;20057;-58
2023/07/13 01:07:29;;;;;;;7.28;3.15;;;;;;;29.38;45.49;98563.13;2065694;28;20058;-58
2023/07/13 01:08:33;;;;;;;7.70;2.60;;;;;;;29.38;45.50;98554.94;2063442;28;20045;-48
2023/07/13 01:09:33;;;;;;;8.70;3.92;;;;;;;29.26;45.71;98548.97;2061971;28;20543;-52
2023/07/13 01:10:38;;;;;;;10.63;3.50;;;;;;;29.25;45.91;98552.78;2062176;28;20052;-54
2023/07/13 01:11:41;;;;;;;5.85;3.13;;;;;;;29.23;46.07;98553.06;2064483;28;20053;-57
2023/07/13 01:12:42;;;;;;;6.75;2.80;;;;;;;29.21;45.91;98554.44;2062142;28;20045;-53
2023/07/13 01:13:43;;;;;;;5.22;2.97;;;;;;;29.22;45.97;98559.59;2063014;28;20050;-55
2023/07/13 01:14:45;;;;;;;4.80;2.90;;;;;;;29.23;45.97;98563.19;2060481;28;20162;-52
2023/07/13 01:15:49;;;;;;;9.57;3.30;;;;;;;29.19;45.90;98560.16;2062568;28;20046;-50
2023/07/13 01:16:51;;;;;;;7.57;3.58;;;;;;;29.20;45.73;98563.69;2062116;28;20443;-58
2023/07/13 01:17:52;;;;;;;10.18;3.28;;;;;;;29.23;45.75;98568.63;2062735;28;20053;-55
2023/07/13 01:18:54;;;;;;;4.22;2.72;;;;;;;29.25;45.74;98569.16;2064034;28;20049;-51
2023/07/13 01:19:55;;;;;;;4.22;2.95;;;;;;;29.20;45.34;98567.28;2061729;28;20423;-53
2023/07/13 01:21:00;;;;;;;5.55;3.10;;;;;;;29.22;45.16;98566.97;2062469;28;20133;-54
2023/07/13 01:22:02;;;;;;;9.10;3.75;;;;;;;29.18;45.66;98564.81;2062192;28;20046;-51
2023/07/13 01:23:07;;;;;;;8.20;3.13;;;;;;;29.15;45.49;98565.34;2065464;28;20161;-53
2023/07/13 01:24:08;;;;;;;7.60;3.60;;;;;;;29.16;45.62;98564.25;2052746;28;20523;-59
2023/07/13 01:25:10;;;;;;;7.18;2.60;;;;;;;29.18;45.45;98574.91;2061724;28;20060;-51
2023/07/13 01:26:11;;;;;;;7.97;3.03;;;;;;;29.22;45.42;98567.78;2061356;28;20054;-51
2023/07/13 01:27:15;;;;;;;8.98;3.55;;;;;;;29.23;45.51;98568.63;2064333;28;21052;-56
2023/07/13 01:28:16;;;;;;;5.00;2.45;;;;;;;29.23;45.79;98574.09;2062962;28;20037;-50
2023/07/13 01:29:18;;;;;;;5.30;2.47;;;;;;;29.31;45.67;98574.34;2062155;28;20085;-52
2023/07/13 01:30:19;;;;;;;5.50;2.83;;;;;;;29.35;45.42;98567.22;2064307;28;20050;-53
2023/07/13 01:31:21;;;;;;;9.32;3.70;;;;;;;29.33;45.47;98574.88;2062340;28;20058;-56
2023/07/13 01:32:24;;;;;;;6.47;2.97;;;;;;;29.36;45.22;98571.63;2062809;28;20058;-57
2023/07/13 01:33:25;;;;;;;6.57;3.33;;;;;;;29.31;44.97;98576.25;2063901;28;20160;-52
2023/07/13 01:34:27;;;;;;;11.60;4.72;;;;;;;29.27;44.84;98575.16;2062408;28;20046;-57
2023/07/13 01:35:29;;;;;;;7.10;3.10;;;;;;;29.27;44.90;98578.72;2063640;28;20586;-54
2023/07/13 01:36:31;;;;;;;9.27;3.10;;;;;;;29.29;45.04;98575.72;2060049;28;20069;-57
2023/07/13 01:37:35;;;;;;;8.85;2.78;;;;;;;29.38;44.86;98580.34;2062551;28;20088;-50
2023/07/13 01:38:37;;;;;;;7.40;4.03;;;;;;;29.36;44.54;98584.44;2060414;28;20439;-55
2023/07/13 01:39:39;;;;;;;10.95;3.72;;;;;;;29.38;44.46;98571.31;2062348;28;20050;-54
2023/07/13 01:40:40;;;;;;;15.57;3.63;;;;;;;29.40;44.51;98569.16;2062990;28;20088;-51
2023/07/13 01:41:42;;;;;;;5.45;2.72;;;;;;;29.28;44.58;98569.44;2055740;28;20057;-56
2023/07/13 01:42:42;;;;;;;14.68;3.83;;;;;;;29.23;45.09;98564.00;2061350;28;20050;-49
2023/07/13 01:43:44;;;;;;;6.13;2.88;;;;;;;29.24;45.32;98562.06;2064205;28;20061;-53
2023/07/13 01:44:45;;;;;;;8.68;3.33;;;;;;;29.25;45.51;98567.25;2064086;28;20416;-56
2023/07/13 01:45:47;;;;;;;4.72;2.83;;;;;;;29.25;45.28;98571.88;2063030;28;20038;-54
2023/07/13 01:46:48;;;;;;;8.25;2.67;;;;;;;29.28;45.11;98577.66;2061782;28;20046;-48
2023/07/13 01:47:49;;;;;;;8.65;3.28;;;;;;;29.28;44.99;98577.66;2064496;28;20045;-54
2023/07/13 01:48:51;;;;;;;3.95;2.78;;;;;;;29.27;45.17;98573.25;2055290;28;20464;-50
2023/07/13 01:49:53;;;;;;;6.97;3.00;;;;;;;29.30;45.45;98569.97;2059679;28;20647;-60
2023/07/13 01:50:54;;;;;;;9.63;2.97;;;;;;;29.31;45.06;98574.34;2061511;28;20054;-49
2023/07/13 01:51:57;;;;;;;4.53;2.90;;;;;;;29.33;45.01;98558.47;2065639;28;20080;-58
2023/07/13 01:52:58;;;;;;;6.82;2.90;;;;;;;29.29;45.08;98548.41;2061339;28;20050;-53
2023/07/13 01:54:00;;;;;;;4.63;3.53;;;;;;;29.24;45.49;98548.41;2064957;28;20057;-56
2023/07/13 01:55:00;;;;;;;7.53;3.08;;;;;;;29.22;45.59;98556.06;2062226;28;20081;-54
2023/07/13 01:56:02;;;;;;;8.77;3.08;;;;;;;29.22;45.08;98547.88;2061612;28;20072;-52
2023/07/13 01:57:04;;;;;;;5.95;3.03;;;;;;;29.19;45.34;98549.22;2063405;28;20053;-56
2023/07/13 01:58:06;;;;;;;8.00;2.83;;;;;;;29.23;45.08;98547.59;2060832;28;20061;-57
2023/07/13 01:59:07;;;;;;;7.60;2.95;;;;;;;29.17;45.21;98549.53;2060214;28;20050;-55
2023/07/13 02:00:11;;;;;;;10.85;3.20;;;;;;;29.18;44.90;98542.13;2063066;28;20057;-52
2023/07/13 02:01:13;;;;;;;8.18;3.00;;;;;;;29.16;45.32;98542.41;2064720;28;20060;-53
2023/07/13 02:02:14;;;;;;;7.43;2.78;;;;;;;29.14;45.16;98541.03;2060501;28;20058;-56
2023/07/13 02:03:17;;;;;;;11.13;3.17;;;;;;;29.17;45.29;98543.25;2062713;28;20232;-50
2023/07/13 02:04:18;;;;;;;5.53;3.17;;;;;;;29.27;45.21;98534.19;2060289;28;20199;-48
2023/07/13 02:05:20;;;;;;;4.40;3.15;;;;;;;29.26;45.42;98535.31;2054046;28;20058;-47
2023/07/13 02:06:21;;;;;;;10.15;2.97;;;;;;;29.21;45.57;98538.84;2062233;28;21372;-49
2023/07/13 02:07:25;;;;;;;8.52;2.97;;;;;;;29.17;45.42;98541.31;2063222;28;20057;-51
2023/07/13 02:08:25;;;;;;;8.05;2.97;;;;;;;29.13;45.41;98529.31;2058999;28;20141;-54
2023/07/13 02:09:27;;;;;;;6.03;2.63;;;;;;;29.10;45.58;98531.78;2058732;28;20112;-53
2023/07/13 02:10:28;;;;;;;6.15;3.72;;;;;;;29.20;45.64;98522.72;2061925;28;20637;-52
2023/07/13 02:11:32;;;;;;;7.38;3.60;;;;;;;29.24;45.51;98518.38;2064644;28;20141;-52
2023/07/13 02:12:33;;;;;;;8.25;3.10;;;;;;;29.11;45.86;98522.47;2064333;28;20053;-53
2023/07/13 02:13:35;;;;;;;7.35;3.35;;;;;;;29.09;45.95;98525.50;2066398;28;20056;-55
2023/07/13 02:14:36;;;;;;;12.05;4.25;;;;;;;29.17;45.97;98521.41;2060529;28;20046;-53
2023/07/13 02:15:41;;;;;;;5.88;2.65;;;;;;;29.23;45.94;98527.66;2067159;28;20050;-49
2023/07/13 02:16:42;;;;;;;6.95;3.10;;;;;;;29.25;45.87;98529.00;2062855;28;20065;-50
2023/07/13 02:17:44;;;;;;;7.53;2.95;;;;;;;29.20;45.71;98536.38;2062993;28;20870;-57
2023/07/13 02:18:44;;;;;;;6.28;3.25;;;;;;;29.11;46.15;98531.50;2062658;28;20428;-53
2023/07/13 02:19:46;;;;;;;7.47;3.42;;;;;;;29.15;46.23;98535.31;2062669;28;20137;-52
2023/07/13 02:20:47;;;;;;;10.85;3.60;;;;;;;29.12;45.55;98524.13;2060666;28;20488;-55
2023/07/13 02:21:49;;;;;;;6.60;3.67;;;;;;;29.03;46.21;98521.16;2062762;28;20050;-54
2023/07/13 02:22:52;;;;;;;4.00;2.92;;;;;;;29.06;46.36;98517.00;2053203;28;20061;-55
2023/07/13 02:23:54;;;;;;;5.63;3.08;;;;;;;29.08;46.61;98520.28;2063141;28;20058;-59
2023/07/13 02:24:55;;;;;;;9.80;2.60;;;;;;;29.16;46.53;98520.56;2063430;28;20492;-53
2023/07/13 02:25:58;;;;;;;6.82;3.60;;;;;;;29.25;46.03;98517.25;2060741;28;20077;-55
2023/07/13 02:26:59;;;;;;;7.35;3.08;;;;;;;29.22;46.22;98512.34;2061029;28;20050;-57
2023/07/13 02:28:01;;;;;;;6.40;3.35;;;;;;;29.22;46.58;98520.53;2061607;28;20651;-50
2023/07/13 02:29:02;;;;;;;6.53;3.03;;;;;;;29.22;46.27;98512.34;2062078;28;20058;-60
2023/07/13 02:30:05;;;;;;;11.38;3.25;;;;;;;29.25;46.22;98512.59;2060698;28;20468;-58
2023/07/13 02:31:07;;;;;;;5.43;3.65;;;;;;;29.24;46.33;98512.91;2060314;28;20568;-52
2023/07/13 02:32:09;;;;;;;6.78;3.80;;;;;;;29.24;46.78;98518.38;2061774;28;20766;-50
2023/07/13 02:33:10;;;;;;;5.43;3.47;;;;;;;29.17;46.60;98516.75;2062115;28;20074;-48
2023/07/13 02:34:11;;;;;;;10.10;3.70;;;;;;;29.16;46.57;98519.75;2060264;28;20061;-57
2023/07/13 02:35:12;;;;;;;8.63;3.25;;;;;;;29.17;46.49;98515.94;2061930;28;20073;-53
2023/07/13 02:36:16;;;;;;;3.70;2.72;;;;;;;29.16;46.61;98509.63;2059980;28;20173;-52
2023/07/13 02:37:16;;;;;;;5.93;2.90;;;;;;;29.16;46.51;98508.81;2061973;28;20050;-56
2023/07/13 02:38:20;;;;;;;5.53;3.50;;;;;;;29.16;46.61;98512.34;2062040;28;20059;-54
2023/07/13 02:39:21;;;;;;;7.50;3.30;;;;;;;29.14;46.60;98514.56;2062874;28;20085;-52
2023/07/13 02:40:23;;;;;;;10.05;3.20;;;;;;;29.14;46.70;98511.84;2060905;28;20053;-52
2023/07/13 02:41:23;;;;;;;4.68;2.70;;;;;;;29.10;46.32;98512.66;2051857;28;20467;-51
2023/07/13 02:42:25;;;;;;;9.27;3.30;;;;;;;29.10;46.66;98499.00;2061042;28;20057;-54
2023/07/13 02:43:26;;;;;;;7.25;3.30;;;;;;;29.03;46.37;98493.84;2058910;28;20045;-55
2023/07/13 02:44:28;;;;;;;8.20;3.80;;;;;;;29.02;46.58;98492.16;2062407;28;20046;-55
2023/07/13 02:45:29;;;;;;;6.07;3.20;;;;;;;28.97;46.35;98483.97;2060591;28;20606;-49
2023/07/13 02:46:31;;;;;;;8.73;3.50;;;;;;;29.02;46.60;98480.41;2061949;28;20050;-57
2023/07/13 02:47:32;;;;;;;8.02;3.95;;;;;;;29.10;46.18;98482.63;2060892;28;20085;-55
2023/07/13 02:48:34;;;;;;;5.53;3.03;;;;;;;29.12;46.17;98475.78;2062503;28;20161;-51
2023/07/13 02:49:35;;;;;;;17.08;3.20;;;;;;;28.97;46.54;98478.50;2061348;28;20054;-51
2023/07/13 02:50:37;;;;;;;9.88;3.60;;;;;;;28.91;46.51;98487.81;2062970;28;20104;-51
2023/07/13 02:51:38;;;;;;;7.85;3.08;;;;;;;28.92;46.42;98481.28;2063919;28;20138;-55
2023/07/13 02:52:40;;;;;;;7.38;3.17;;;;;;;28.83;46.82;98482.91;2062101;28;20062;-51
2023/07/13 02:53:42;;;;;;;5.30;2.80;;;;;;;28.89;46.71;98479.06;2064040;28;20054;-52
2023/07/13 02:54:44;;;;;;;15.50;4.78;;;;;;;28.86;47.06;98474.16;2061250;28;20053;-51
2023/07/13 02:55:47;;;;;;;4.82;2.92;;;;;;;28.99;46.59;98470.06;2062567;28;20054;-51
2023/07/13 02:56:49;;;;;;;7.03;3.60;;;;;;;28.92;46.67;98471.16;2060240;28;20090;-54
2023/07/13 02:57:50;;;;;;;7.30;2.80;;;;;;;28.89;46.70;98470.88;2066019;28;20080;-52
2023/07/13 02:58:53;;;;;;;6.30;3.10;;;;;;;28.86;46.58;98471.44;2060212;28;20420;-56
2023/07/13 02:59:54;;;;;;;5.18;3.25;;;;;;;28.84;46.76;98474.44;2052770;28;21429;-57
2023/07/13 03:00:57;;;;;;;6.38;2.55;;;;;;;28.89;46.68;98477.19;2058855;28;20060;-53
2023/07/13 03:01:58;;;;;;;12.50;3.17;;;;;;;29.01;46.24;98485.06;2059247;28;20147;-53
2023/07/13 03:03:00;;;;;;;5.93;3.28;;;;;;;29.07;46.31;98483.19;2060488;28;20463;-57
2023/07/13 03:04:01;;;;;;;6.53;2.80;;;;;;;29.09;46.03;98481.81;2061973;28;20512;-60
2023/07/13 03:05:04;;;;;;;4.32;3.03;;;;;;;29.07;46.07;98483.19;2064624;28;20060;-58
2023/07/13 03:06:07;;;;;;;6.80;3.78;;;;;;;29.09;46.05;98481.00;2061556;28;20050;-52
2023/07/13 03:07:09;;;;;;;9.05;3.20;;;;;;;28.89;46.30;98481.78;2061797;28;20072;-61
2023/07/13 03:08:11;;;;;;;8.52;3.42;;;;;;;28.94;46.49;98484.50;2062207;28;20777;-59
2023/07/13 03:09:14;;;;;;;7.45;3.00;;;;;;;29.00;46.30;98494.34;2060441;28;20056;-50
2023/07/13 03:10:16;;;;;;;6.55;3.05;;;;;;;29.01;46.22;98495.19;2062971;28;20061;-52
2023/07/13 03:11:20;;;;;;;7.93;3.75;;;;;;;29.03;46.46;98510.22;2062128;28;20045;-58
2023/07/13 03:12:21;;;;;;;4.28;2.70;;;;;;;29.03;46.45;98512.94;2063763;28;20057;-56
2023/07/13 03:13:23;;;;;;;7.22;3.88;;;;;;;29.06;46.31;98504.22;2060950;28;21039;-50
2023/07/13 03:14:23;;;;;;;6.75;3.75;;;;;;;29.01;46.61;98503.38;2062349;28;20046;-54
2023/07/13 03:15:25;;;;;;;12.18;5.05;;;;;;;28.99;46.48;98502.81;2061685;28;20050;-56
2023/07/13 03:16:26;;;;;;;4.60;3.28;;;;;;;29.01;46.60;98495.19;2055527;28;20088;-54
2023/07/13 03:17:28;;;;;;;6.35;2.95;;;;;;;29.04;46.45;98494.66;2056298;28;20093;-54
2023/07/13 03:18:29;;;;;;;4.07;3.03;;;;;;;29.01;46.43;98489.72;2055976;28;20061;-56
2023/07/13 03:19:31;;;;;;;10.55;2.95;;;;;;;28.98;46.49;98490.28;2057883;28;20108;-54
2023/07/13 03:20:33;;;;;;;5.65;3.13;;;;;;;28.94;46.37;98489.97;2060550;28;20054;-54
2023/07/13 03:21:35;;;;;;;13.93;3.42;;;;;;;28.98;46.27;98491.09;2060734;28;20046;-56
2023/07/13 03:22:36;;;;;;;5.95;3.33;;;;;;;28.94;46.39;98492.72;2061487;28;20105;-55
2023/07/13 03:23:38;;;;;;;8.98;2.72;;;;;;;28.93;46.48;98493.81;2063920;28;20085;-55
2023/07/13 03:24:40;;;;;;;10.30;3.70;;;;;;;28.92;46.48;98494.91;2063304;28;20715;-55
2023/07/13 03:25:42;;;;;;;3.45;2.70;;;;;;;28.90;46.38;98494.38;2066238;28;20053;-55
2023/07/13 03:26:43;;;;;;;6.63;3.63;;;;;;;28.97;46.27;98483.97;2064356;28;20054;-55
2023/07/13 03:27:45;;;;;;;7.20;4.00;;;;;;;28.95;46.43;98484.25;2062586;28;20553;-57
2023/07/13 03:28:46;;;;;;;8.43;3.67;;;;;;;28.91;46.34;98479.59;2063417;28;20053;-57
2023/07/13 03:29:48;;;;;;;7.03;3.17;;;;;;;28.90;46.50;98488.91;2063522;28;20821;-58
2023/07/13 03:30:49;;;;;;;7.32;4.30;;;;;;;28.84;46.53;98473.63;2063818;28;20809;-54
2023/07/13 03:31:50;;;;;;;7.10;3.00;;;;;;;28.82;46.68;98481.28;2064810;28;20140;-53
2023/07/13 03:32:51;;;;;;;7.63;3.13;;;;;;;28.92;46.09;98475.81;2063718;28;20053;-51
2023/07/13 03:33:53;;;;;;;7.88;3.65;;;;;;;28.94;46.25;98474.41;2066255;28;20612;-54
2023/07/13 03:34:54;;;;;;;8.45;3.42;;;;;;;28.87;46.40;98484.81;2058655;28;20053;-54
2023/07/13 03:35:57;;;;;;;6.45;3.35;;;;;;;28.83;46.39;98485.63;2061486;28;20599;-50
2023/07/13 03:36:59;;;;;;;7.70;3.78;;;;;;;28.88;46.45;98488.34;2061329;28;20045;-49
2023/07/13 03:38:00;;;;;;;5.60;3.00;;;;;;;28.94;46.42;98481.78;2064640;28;20069;-50
2023/07/13 03:39:05;;;;;;;6.72;3.42;;;;;;;29.00;46.32;98485.31;2062462;28;20567;-54
2023/07/13 03:40:09;;;;;;;6.45;3.17;;;;;;;28.83;46.40;98477.44;2064435;28;20112;-48
2023/07/13 03:41:10;;;;;;;6.55;2.85;;;;;;;28.82;46.66;98481.28;2062799;28;20061;-48
2023/07/13 03:42:11;;;;;;;7.57;2.90;;;;;;;28.82;46.92;98487.53;2064857;28;20050;-58
2023/07/13 03:43:12;;;;;;;5.28;3.72;;;;;;;28.92;46.53;98486.72;2062501;28;20078;-55
2023/07/13 03:44:16;;;;;;;9.70;3.22;;;;;;;29.01;46.43;98479.59;2063567;28;20054;-50
2023/07/13 03:45:17;;;;;;;8.75;2.90;;;;;;;29.05;46.25;98485.34;2061704;28;20058;-60
2023/07/13 03:46:19;;;;;;;7.25;3.28;;;;;;;29.02;46.45;98480.41;2061946;28;20768;-57
2023/07/13 03:47:20;;;;;;;7.47;3.13;;;;;;;28.85;46.82;98481.53;2061187;28;20058;-60
2023/07/13 03:48:22;;;;;;;6.80;2.85;;;;;;;28.81;46.98;98479.66;2062170;28;20401;-53
2023/07/13 03:49:23;;;;;;;9.13;3.42;;;;;;;28.78;46.99;98486.47;2061884;28;20042;-55
2023/07/13 03:50:25;;;;;;;4.93;2.60;;;;;;;28.82;46.94;98481.28;2066072;28;20454;-50
2023/07/13 03:51:26;;;;;;;5.65;3.20;;;;;;;28.80;46.93;98481.53;2056073;28;20061;-58
2023/07/13 03:52:28;;;;;;;11.95;4.85;;;;;;;28.84;46.91;98490.81;2059652;28;20053;-53
2023/07/13 03:53:29;;;;;;;3.97;3.42;;;;;;;28.84;46.84;98499.00;2063901;28;20056;-56
2023/07/13 03:54:32;;;;;;;7.28;3.63;;;;;;;28.84;46.97;98498.19;2063459;28;20141;-49
2023/07/13 03:55:35;;;;;;;9.15;4.15;;;;;;;28.80;46.95;98503.38;2063352;28;20050;-55
2023/07/13 03:56:36;;;;;;;7.22;3.10;;;;;;;28.81;47.00;98504.22;2060695;28;20046;-51
2023/07/13 03:57:37;;;;;;;8.75;2.83;;;;;;;28.87;46.75;98512.09;2066475;28;20069;-52
2023/07/13 03:58:40;;;;;;;6.72;3.78;;;;;;;28.87;46.89;98506.66;2060778;28;20050;-55
2023/07/13 03:59:42;;;;;;;6.93;3.28;;;;;;;28.87;47.08;98505.84;2064968;28;20050;-57
2023/07/13 04:00:43;;;;;;;5.85;3.47;;;;;;;28.84;47.12;98500.94;2061514;28;20050;-48
2023/07/13 04:01:45;;;;;;;7.10;3.55;;;;;;;28.84;46.84;98498.19;2062635;28;20045;-53
2023/07/13 04:02:49;;;;;;;6.88;3.08;;;;;;;28.81;46.76;98496.84;2061619;28;20547;-54
2023/07/13 04:03:51;;;;;;;8.55;3.15;;;;;;;28.83;46.92;98488.34;2064107;28;20135;-53
2023/07/13 04:04:54;;;;;;;9.65;3.17;;;;;;;28.80;46.86;98478.81;2060849;28;20050;-51
2023/07/13 04:05:59;;;;;;;8.18;3.55;;;;;;;28.84;46.89;98484.56;2065894;28;20639;-50
2023/07/13 04:07:00;;;;;;;7.65;3.13;;;;;;;28.83;46.86;98485.63;2063709;28;20060;-50
2023/07/13 04:08:01;;;;;;;5.70;2.97;;;;;;;28.78;47.22;98480.16;2058018;28;20151;-61
2023/07/13 04:09:05;;;;;;;6.40;3.53;;;;;;;28.77;47.38;98478.53;2060482;28;20053;-53
2023/07/13 04:10:07;;;;;;;4.13;2.92;;;;;;;28.76;47.26;98477.72;2063014;28;20112;-54
2023/07/13 04:11:10;;;;;;;10.93;3.30;;;;;;;28.81;47.14;98477.72;2066086;28;20064;-51
2023/07/13 04:12:11;;;;;;;5.65;2.63;;;;;;;28.76;47.27;98479.66;2064878;28;20053;-55
2023/07/13 04:13:14;;;;;;;7.75;3.00;;;;;;;28.72;47.26;98476.63;2063680;28;20050;-58
2023/07/13 04:14:15;;;;;;;7.45;2.85;;;;;;;28.70;47.37;98481.56;2062474;28;20076;-57
2023/07/13 04:15:17;;;;;;;6.30;2.88;;;;;;;28.76;47.30;98476.91;2061966;28;20055;-54
2023/07/13 04:16:19;;;;;;;8.02;2.90;;;;;;;28.81;47.27;98483.19;2063195;28;20054;-53
2023/07/13 04:17:21;;;;;;;5.97;3.42;;;;;;;28.81;47.17;98476.91;2063696;28;20057;-53
2023/07/13 04:18:22;;;;;;;4.80;2.75;;;;;;;28.76;47.25;98488.66;2062862;28;20055;-55
2023/07/13 04:19:24;;;;;;;5.35;3.10;;;;;;;28.76;47.39;98488.66;2061944;28;20053;-57
2023/07/13 04:20:26;;;;;;;10.32;3.83;;;;;;;28.78;47.29;98486.47;2062501;28;20050;-55
2023/07/13 04:21:28;;;;;;;6.43;3.30;;;;;;;28.78;47.52;98491.09;2065139;28;20073;-52
2023/07/13 04:22:29;;;;;;;3.83;2.63;;;;;;;28.81;47.36;98496.03;2063034;28;20053;-51
2023/07/13 04:23:31;;;;;;;10.65;3.50;;;;;;;28.85;47.35;98499.81;2063751;28;20041;-54
2023/07/13 04:24:32;;;;;;;4.93;3.40;;;;;;;28.81;47.24;98496.03;2063951;28;20656;-55
2023/07/13 04:25:34;;;;;;;5.55;2.63;;;;;;;28.84;47.26;98498.19;2063360;28;20144;-57
2023/07/13 04:26:38;;;;;;;11.60;4.25;;;;;;;28.84;47.04;98499.00;2054886;28;20141;-56
2023/07/13 04:27:40;;;;;;;6.10;3.15;;;;;;;28.87;47.21;98501.19;2060250;28;20085;-52
2023/07/13 04:28:41;;;;;;;7.78;3.15;;;;;;;28.88;47.12;98496.53;2061434;28;20595;-58
2023/07/13 04:29:43;;;;;;;5.35;2.38;;;;;;;28.89;47.16;98493.56;2064743;28;20053;-58
2023/07/13 04:30:44;;;;;;;5.95;3.17;;;;;;;28.92;47.25;98494.91;2062751;28;20049;-50
2023/07/13 04:31:48;;;;;;;3.13;2.83;;;;;;;28.92;47.46;98492.19;2063811;28;20060;-52
2023/07/13 04:32:52;;;;;;;7.05;3.42;;;;;;;28.92;47.39;98494.91;2061702;28;20914;-54
2023/07/13 04:33:54;;;;;;;5.28;3.42;;;;;;;28.88;47.62;98493.81;2064435;28;20200;-54
2023/07/13 04:34:55;;;;;;;7.72;3.03;;;;;;;28.88;47.53;98502.00;2063837;28;20141;-51
2023/07/13 04:35:59;;;;;;;9.02;3.53;;;;;;;28.88;47.49;98504.72;2061571;28;20099;-54
2023/07/13 04:36:59;;;;;;;7.25;2.95;;;;;;;28.88;47.47;98500.09;2063218;28;20045;-52
2023/07/13 04:38:02;;;;;;;5.40;3.00;;;;;;;28.92;47.05;98508.56;2063595;28;20050;-52
2023/07/13 04:39:03;;;;;;;10.30;3.28;;;;;;;28.92;47.36;98498.47;2061058;28;20050;-52
2023/07/13 04:40:06;;;;;;;6.88;3.63;;;;;;;28.94;47.30;98506.34;2064473;28;20727;-51
2023/07/13 04:41:08;;;;;;;6.80;3.42;;;;;;;28.95;47.62;98514.28;2062563;28;20049;-49
2023/07/13 04:42:11;;;;;;;5.00;3.28;;;;;;;28.96;47.47;98509.63;2062750;28;20062;-55
2023/07/13 04:43:12;;;;;;;5.72;2.58;;;;;;;28.93;47.12;98499.28;2060412;28;20062;-54
2023/07/13 04:44:14;;;;;;;8.65;3.15;;;;;;;28.96;47.63;98504.19;2064038;28;20060;-49
2023/07/13 04:45:15;;;;;;;6.10;3.28;;;;;;;28.92;47.09;98494.91;2053726;28;20050;-52
2023/07/13 04:46:19;;;;;;;6.80;3.45;;;;;;;28.93;47.18;98491.91;2062334;28;21014;-49
2023/07/13 04:47:19;;;;;;;4.15;3.28;;;;;;;28.91;47.49;98491.34;2062232;28;20061;-55
2023/07/13 04:48:21;;;;;;;4.65;2.60;;;;;;;28.93;47.31;98499.28;2060933;28;20530;-51
2023/07/13 04:49:23;;;;;;;5.55;3.42;;;;;;;28.92;47.25;98508.56;2063133;28;21000;-54
2023/07/13 04:50:24;;;;;;;6.03;3.30;;;;;;;28.96;47.17;98507.72;2062515;28;20061;-56
2023/07/13 04:51:26;;;;;;;3.42;2.97;;;;;;;29.02;47.16;98503.06;2063320;28;20176;-52